Wheatland, Oklahoma
Current Conditions -  °F | °C
As of 9:52 AM on Sunday 25 Jan 2015 (Local Time) from KOKC Reporting Station
Clear Clear  
Wind Chill: 52°   Ceiling: Unl
Heat Index: 52°   Visibility: 10mi
Dew Point: 29°   Wind: 30mph
Humidity: 41%   Direction: 330°NNW
Pressure: 30"   Gusts: 38mph
Location:  35.4°N, 97.65°W
Report Text: KOKC 251552Z 33026G33KT 10SM CLR 11/M02 A3000 RMK AO2 PK WND 33033/1550 SLP159 T01111017
Loading
Personal Weather Stations






























Interactive Weather Map New forecast layout! Learn more

10-Day Weather Forecast

Advertisements
Track Severe Weather on mobile